Pacific Navigator — PENDING — position and weather

sailwx.info

Track history (hours):
 
Tides and Currents Weather Stations Pressure Air Temp Water Temp Dewpoint Dewpoint Depression Visibility Wind Speed Wind Dir Waves Ship Positions

Pacific Navigator

Last reported at 2017-Dec-17 05:34 UTC. Time now 2017-Dec-17 06:39 UTC.
Position N 49°07' W 123°11'.

Length 35 m.

Type: Pleasure craft. MMSI: 123456788.

Date/timePositionNaut miles runAvg speedWind from/ knotsBaromVisibWave heightAir tempDewpointWater temp
2017-Dec-17 05:34N 49°07' W 123°11'0 0.0
2017-Dec-17 04:53N 49°07' W 123°11'0 0.0
2017-Dec-17 02:49N 49°07' W 123°11'516.3
2017-Dec-17 02:29N 49°06' W 123°19'5 2.0
2017-Dec-16 23:49N 49°07' W 123°11'617.8
2017-Dec-16 23:29N 49°06' W 123°20'6 0.4
2017-Dec-16 10:15N 49°07' W 123°11'418.2
2017-Dec-16 10:00N 49°06' W 123°18'2 4.7
2017-Dec-16 09:30N 49°04' W 123°18'4 7.5
2017-Dec-16 08:59N 49°07' W 123°15'1 1.8
2017-Dec-16 08:30N 49°07' W 123°17'3 2.9
2017-Dec-16 07:19N 49°07' W 123°11'617.7
2017-Dec-16 07:01N 49°06' W 123°19'6 0.5
2017-Dec-15 20:19N 49°07' W 123°11'616.7
2017-Dec-15 19:58N 49°05' W 123°19'3 5.9
2017-Dec-15 19:29N 49°07' W 123°17'3 0.7
2017-Dec-15 14:26N 49°07' W 123°11'815.9
2017-Dec-15 13:55N 49°07' W 123°24'8 4.6
2017-Dec-15 12:05N 49°07' W 123°11'112.6
2017-Dec-15 12:00N 49°08' W 123°13'5 8.8
2017-Dec-15 11:24N 49°04' W 123°18'2 5.7
2017-Dec-15 11:00N 49°06' W 123°19'5 0.6
2017-Dec-15 02:06N 49°07' W 123°11'0 0.0
2017-Dec-14 18:30N 49°07' W 123°11'0 0.0
2017-Dec-14 18:00N 49°07' W 123°11'0 0.0
2017-Dec-14 17:30N 49°07' W 123°11'0 0.3
2017-Dec-14 16:41N 49°07' W 123°11'0 1.2
2017-Dec-14 16:30N 49°07' W 123°11'0 0.0
2017-Dec-14 16:00N 49°07' W 123°11'0 0.0
2017-Dec-14 15:00N 49°07' W 123°11'0 0.0
2017-Dec-14 14:30N 49°07' W 123°11'0 0.0
2017-Dec-14 14:00N 49°07' W 123°11'0 0.0
2017-Dec-14 13:30N 49°07' W 123°11'0 0.0
2017-Dec-14 12:57N 49°07' W 123°11'0 0.0
2017-Dec-14 12:29N 49°07' W 123°11'0 0.0
2017-Dec-14 12:00N 49°07' W 123°11'0 0.0
2017-Dec-14 11:30N 49°07' W 123°11'0 0.0
2017-Dec-14 11:01N 49°07' W 123°11'0 0.0
2017-Dec-14 10:30N 49°07' W 123°11'510.9
2017-Dec-14 10:00N 49°06' W 123°19'5 9.8
2017-Dec-14 09:30N 49°08' W 123°12'1 1.4
2017-Dec-14 09:00N 49°07' W 123°11'0 0.0
2017-Dec-14 08:30N 49°07' W 123°11'0 0.0
2017-Dec-14 07:57N 49°07' W 123°11'0 0.0
2017-Dec-14 07:23N 49°07' W 123°11'0 0.0
2017-Dec-14 07:00N 49°07' W 123°11'0 0.0
2017-Dec-14 06:29N 49°07' W 123°11'0 0.0
2017-Dec-14 06:00N 49°07' W 123°11'0 0.0
2017-Dec-14 05:30N 49°07' W 123°11'0 0.0
2017-Dec-14 04:57N 49°07' W 123°11'0 0.0
2017-Dec-14 04:30N 49°07' W 123°11'0 0.0
2017-Dec-14 04:00N 49°07' W 123°11'0 0.0
2017-Dec-14 03:30N 49°07' W 123°11'0 0.0
2017-Dec-14 02:59N 49°07' W 123°11'0 0.0
2017-Dec-14 02:29N 49°07' W 123°11'0 0.0
2017-Dec-14 01:59N 49°07' W 123°11'0 0.0
2017-Dec-14 01:30N 49°07' W 123°11'0 0.0
2017-Dec-14 01:00N 49°07' W 123°11'0 0.0
2017-Dec-14 00:30N 49°07' W 123°11'0 0.0
2017-Dec-14 00:00N 49°07' W 123°11'611.0
2017-Dec-13 23:28N 49°06' W 123°20'3 5.9
2017-Dec-13 23:00N 49°07' W 123°16'3 6.4
2017-Dec-13 22:30N 49°07' W 123°11'4 7.7
2017-Dec-13 22:00N 49°07' W 123°17'0 0.2
2017-Dec-13 21:30N 49°07' W 123°17'4 7.9
2017-Dec-13 21:00N 49°07' W 123°11'0 0.0
2017-Dec-13 20:30N 49°07' W 123°11'0 0.0
2017-Dec-13 19:58N 49°07' W 123°11'0 0.0
2017-Dec-13 19:30N 49°07' W 123°11'0 0.0
2017-Dec-13 19:00N 49°07' W 123°11'0 0.0
2017-Dec-13 18:30N 49°07' W 123°11'0 0.0
2017-Dec-13 18:00N 49°07' W 123°11'0 0.0
2017-Dec-13 17:30N 49°07' W 123°11'0 0.0
2017-Dec-13 17:00N 49°07' W 123°11'0 0.0
2017-Dec-13 16:30N 49°07' W 123°11'0 0.0
2017-Dec-13 16:00N 49°07' W 123°11'0 0.0
2017-Dec-13 15:30N 49°07' W 123°11'0 0.0
2017-Dec-13 15:00N 49°07' W 123°11'0 0.0
2017-Dec-13 14:30N 49°07' W 123°11'0 0.0
2017-Dec-13 14:00N 49°07' W 123°11'0 0.0
2017-Dec-13 13:30N 49°07' W 123°11'0 0.0
2017-Dec-13 13:00N 49°07' W 123°11'0 0.0
2017-Dec-13 12:30N 49°07' W 123°11'0 0.0
2017-Dec-13 12:00N 49°07' W 123°11'713.4
2017-Dec-13 11:31N 49°04' W 123°20'5 9.1
2017-Dec-13 11:00N 49°07' W 123°15'3 5.0
2017-Dec-13 10:30N 49°07' W 123°11'2 3.2
2017-Dec-13 10:00N 49°08' W 123°14'611.2
2017-Dec-13 09:30N 49°04' W 123°20'713.0
2017-Dec-13 09:00N 49°07' W 123°11'0 0.0
2017-Dec-13 08:19N 49°07' W 123°11'2 7.0
2017-Dec-13 08:00N 49°08' W 123°14'0 0.3
2017-Dec-13 07:30N 49°08' W 123°14'2 4.1
2017-Dec-13 06:58N 49°07' W 123°11'0 0.0
2017-Dec-13 06:26N 49°07' W 123°11'0 0.0
2017-Dec-13 05:57N 49°07' W 123°11'0 0.0
2017-Dec-13 05:28N 49°07' W 123°11'0 0.0
2017-Dec-13 04:58N 49°07' W 123°11'0 0.0
2017-Dec-13 04:28N 49°07' W 123°11'0 0.0
2017-Dec-13 04:00N 49°07' W 123°11'0 0.0
2017-Dec-13 03:30N 49°07' W 123°11'0 0.0
2017-Dec-13 03:00N 49°07' W 123°11'0 0.0
2017-Dec-13 02:30N 49°07' W 123°11'0 0.1
2017-Dec-13 02:00N 49°07' W 123°11'0 0.1
2017-Dec-13 01:30N 49°07' W 123°11'5 8.9
2017-Dec-13 00:59N 49°06' W 123°18'5 9.6
2017-Dec-13 00:30N 49°07' W 123°11'0 0.0
2017-Dec-13 00:00N 49°07' W 123°11'4 8.0
2017-Dec-12 23:30N 49°06' W 123°17'4 7.9
2017-Dec-12 22:59N 49°07' W 123°11'0 0.0
2017-Dec-12 22:30N 49°07' W 123°11'0 0.0
2017-Dec-12 22:00N 49°07' W 123°11'0 0.0
2017-Dec-12 21:29N 49°07' W 123°11'0 0.0
2017-Dec-12 20:59N 49°07' W 123°11'613.5
2017-Dec-12 20:30N 49°05' W 123°20'4 7.6
2017-Dec-12 20:00N 49°07' W 123°16'3 5.9
2017-Dec-12 19:29N 49°07' W 123°11'0 0.0
2017-Dec-12 18:57N 49°07' W 123°11'0 0.0
2017-Dec-12 18:30N 49°07' W 123°11'0 0.0
2017-Dec-12 18:00N 49°07' W 123°11'0 0.0
2017-Dec-12 17:30N 49°07' W 123°11'0 0.0
2017-Dec-12 17:00N 49°07' W 123°11'0 0.0
2017-Dec-12 16:30N 49°07' W 123°11'0 0.0
2017-Dec-12 16:00N 49°07' W 123°11'0 0.0
2017-Dec-12 15:30N 49°07' W 123°11'0 0.0
2017-Dec-12 15:00N 49°07' W 123°11'0 0.0
2017-Dec-12 14:30N 49°07' W 123°11'0 0.0
2017-Dec-12 14:00N 49°07' W 123°11'0 0.0
2017-Dec-12 13:29N 49°07' W 123°11'0 0.0
2017-Dec-12 13:00N 49°07' W 123°11'0 0.0
2017-Dec-12 12:29N 49°07' W 123°11'0 0.0
2017-Dec-12 12:00N 49°07' W 123°11'0 0.0
2017-Dec-12 11:30N 49°07' W 123°11'0 0.0
2017-Dec-12 11:00N 49°07' W 123°11'1 2.7
2017-Dec-12 10:31N 49°08' W 123°13'611.4
2017-Dec-12 10:00N 49°03' W 123°19'612.1
2017-Dec-12 09:28N 49°07' W 123°11'0 0.0
2017-Dec-12 09:00N 49°07' W 123°11'0 0.0
2017-Dec-12 08:30N 49°07' W 123°11'0 0.0
2017-Dec-12 08:00N 49°07' W 123°11'0 0.0
2017-Dec-12 07:30N 49°07' W 123°11'0 0.0
2017-Dec-12 06:52N 49°07' W 123°11'0 0.0
2017-Dec-12 06:29N 49°07' W 123°11'0 0.0
2017-Dec-12 05:59N 49°07' W 123°11'0 0.0
2017-Dec-12 05:30N 49°07' W 123°11'0 0.0
2017-Dec-12 05:00N 49°07' W 123°11'0 0.0
2017-Dec-12 04:30N 49°07' W 123°11'0 0.0
2017-Dec-12 04:00N 49°07' W 123°11'0 0.0
2017-Dec-12 03:29N 49°07' W 123°11'0 0.0
2017-Dec-12 03:00N 49°07' W 123°11'0 0.0
2017-Dec-12 02:30N 49°07' W 123°11'0 0.0
2017-Dec-12 02:00N 49°07' W 123°11'0 0.0
2017-Dec-12 01:29N 49°07' W 123°11'2 4.5
2017-Dec-12 01:00N 49°08' W 123°14'3 5.0
2017-Dec-12 00:29N 49°06' W 123°18'4 9.2
2017-Dec-12 00:00N 49°07' W 123°11'0 0.0
2017-Dec-11 23:30N 49°07' W 123°11'0 0.1
2017-Dec-11 23:00N 49°07' W 123°11'0 0.1
2017-Dec-11 22:27N 49°07' W 123°11'0 0.0
2017-Dec-11 22:00N 49°07' W 123°11'0 0.0
2017-Dec-11 21:30N 49°07' W 123°11'0 0.0
2017-Dec-11 21:00N 49°07' W 123°11'0 0.0
2017-Dec-11 20:30N 49°07' W 123°11'0 0.6
2017-Dec-11 20:00N 49°07' W 123°12'713.0
2017-Dec-11 19:30N 49°03' W 123°19'713.3
2017-Dec-11 19:00N 49°07' W 123°11'0 0.1
2017-Dec-11 18:30N 49°07' W 123°11'0 0.0
2017-Dec-11 18:00N 49°07' W 123°11'0 0.0
2017-Dec-11 17:30N 49°07' W 123°11'0 0.0
2017-Dec-11 16:59N 49°07' W 123°11'0 0.0
2017-Dec-11 16:30N 49°07' W 123°11'0 0.0
2017-Dec-11 15:59N 49°07' W 123°11'0 0.0
2017-Dec-11 15:30N 49°07' W 123°11'0 0.0
2017-Dec-11 15:00N 49°07' W 123°11'0 0.0
2017-Dec-11 14:30N 49°07' W 123°11'0 0.0
2017-Dec-11 14:00N 49°07' W 123°11'0 0.0
2017-Dec-11 13:30N 49°07' W 123°11'0 0.0
2017-Dec-11 13:00N 49°07' W 123°11'0 0.0
2017-Dec-11 12:30N 49°07' W 123°11'612.6
2017-Dec-11 12:00N 49°04' W 123°20'2 5.0
2017-Dec-11 11:30N 49°06' W 123°18'4 8.8
2017-Dec-11 11:00N 49°07' W 123°11'0 0.0
2017-Dec-11 10:30N 49°07' W 123°11'0 0.0
2017-Dec-11 10:00N 49°07' W 123°11'0 0.0
2017-Dec-11 09:30N 49°07' W 123°11'0 0.0
2017-Dec-11 09:00N 49°07' W 123°11'0 0.0
2017-Dec-11 08:29N 49°07' W 123°11'0 0.0
2017-Dec-11 08:00N 49°07' W 123°11'0 0.0
2017-Dec-11 07:30N 49°07' W 123°11'0 0.0
2017-Dec-11 06:59N 49°07' W 123°11'0 0.1
2017-Dec-11 06:30N 49°07' W 123°11'0 0.1
2017-Dec-11 06:00N 49°07' W 123°11'0 0.0
2017-Dec-11 05:30N 49°07' W 123°11'0 0.0
2017-Dec-11 05:00N 49°07' W 123°11'0 0.0
2017-Dec-11 04:30N 49°07' W 123°11'0 0.0
2017-Dec-11 04:00N 49°07' W 123°11'0 0.0
2017-Dec-11 03:30N 49°07' W 123°11'0 0.0
2017-Dec-11 03:00N 49°07' W 123°11'0 0.0
2017-Dec-11 02:26N 49°07' W 123°11'1 3.0
2017-Dec-11 02:00N 49°08' W 123°13'612.7
2017-Dec-11 01:30N 49°02' W 123°18'2 4.1
2017-Dec-11 01:00N 49°04' W 123°20'1 2.4
2017-Dec-11 00:30N 49°06' W 123°19'610.9
2017-Dec-11 00:00N 49°07' W 123°11'0 0.1
2017-Dec-10 23:30N 49°07' W 123°11'0 0.0
2017-Dec-10 23:00N 49°07' W 123°11'0 0.0
2017-Dec-10 22:30N 49°07' W 123°11'713.7
2017-Dec-10 22:00N 49°05' W 123°21'4 8.0
2017-Dec-10 21:30N 49°07' W 123°16'3 5.8
2017-Dec-10 21:00N 49°07' W 123°11'0 0.0
2017-Dec-10 20:30N 49°07' W 123°11'0 0.0
2017-Dec-10 20:00N 49°07' W 123°11'0 0.0
2017-Dec-10 19:30N 49°07' W 123°11'0 0.0
2017-Dec-10 19:00N 49°07' W 123°11'0 0.0
2017-Dec-10 18:28N 49°07' W 123°11'0 0.0
2017-Dec-10 18:00N 49°07' W 123°11'0 0.0
2017-Dec-10 17:30N 49°07' W 123°11'0 0.0
2017-Dec-10 16:59N 49°07' W 123°11'0 0.0
2017-Dec-10 16:30N 49°07' W 123°11'0 0.0
2017-Dec-10 16:00N 49°07' W 123°11'0 0.0
2017-Dec-10 15:27N 49°07' W 123°11'0 0.0
2017-Dec-10 14:59N 49°07' W 123°11'0 0.0
2017-Dec-10 14:30N 49°07' W 123°11'0 0.0
2017-Dec-10 14:00N 49°07' W 123°11'0 0.0
2017-Dec-10 13:30N 49°07' W 123°11'0 0.0
2017-Dec-10 13:00N 49°07' W 123°11'0 0.0
2017-Dec-10 12:30N 49°07' W 123°11'0 0.0
2017-Dec-10 12:00N 49°07' W 123°11'0 0.0
2017-Dec-10 11:30N 49°07' W 123°11'0 0.0
2017-Dec-10 11:00N 49°07' W 123°11'0 0.0
2017-Dec-10 10:30N 49°07' W 123°11'0 0.0
2017-Dec-10 10:00N 49°07' W 123°11'0 0.0
2017-Dec-10 09:30N 49°07' W 123°11'0 0.0
2017-Dec-10 09:00N 49°07' W 123°11'0 0.0
2017-Dec-10 08:30N 49°07' W 123°11'0 0.0
2017-Dec-10 08:00N 49°07' W 123°11'0 0.0
2017-Dec-10 07:30N 49°07' W 123°11'0 0.0
2017-Dec-10 07:00N 49°07' W 123°11'0 0.0
2017-Dec-10 06:30N 49°07' W 123°11'0 0.0
2017-Dec-10 06:00N 49°07' W 123°11'0 0.0
2017-Dec-10 05:30N 49°07' W 123°11'0 0.0
2017-Dec-10 04:59N 49°07' W 123°11'0 0.0
2017-Dec-10 04:28N 49°07' W 123°11'0 0.0
2017-Dec-10 04:00N 49°07' W 123°11'0 0.0
2017-Dec-10 03:30N 49°07' W 123°11'0 0.0
2017-Dec-10 03:00N 49°07' W 123°11'0 0.0
2017-Dec-10 02:30N 49°07' W 123°11'611.2
2017-Dec-10 02:01N 49°06' W 123°19'610.3
2017-Dec-10 01:28N 49°07' W 123°11'0 0.1
2017-Dec-10 01:00N 49°07' W 123°11'0 0.0
2017-Dec-10 00:30N 49°07' W 123°11'0 0.0
2017-Dec-10 00:00N 49°07' W 123°11'0 0.0
2017-Dec-09 23:30N 49°07' W 123°11'0 0.0
2017-Dec-09 23:00N 49°07' W 123°11'0 0.0
2017-Dec-09 22:28N 49°07' W 123°11'0 0.0
2017-Dec-09 21:55N 49°07' W 123°11'0 0.0
2017-Dec-09 21:30N 49°07' W 123°11'0 0.0
2017-Dec-09 21:00N 49°07' W 123°11'0 0.0
2017-Dec-09 20:29N 49°07' W 123°11'0 0.0
2017-Dec-09 19:58N 49°07' W 123°11'0 0.0
2017-Dec-09 19:30N 49°07' W 123°11'0 0.0
2017-Dec-09 18:58N 49°07' W 123°11'0 0.0
2017-Dec-09 18:31N 49°07' W 123°11'0 0.0
2017-Dec-09 18:00N 49°07' W 123°11'0 0.0
2017-Dec-09 17:30N 49°07' W 123°11'0 0.0
2017-Dec-09 17:00N 49°07' W 123°11'0 0.0
2017-Dec-09 16:29N 49°07' W 123°11'0 0.0
2017-Dec-09 15:58N 49°07' W 123°11'0 0.0
2017-Dec-09 15:30N 49°07' W 123°11'0 0.0
2017-Dec-09 15:00N 49°07' W 123°11'0 0.0
2017-Dec-09 14:30N 49°07' W 123°11'0 0.0
2017-Dec-09 14:00N 49°07' W 123°11'0 0.0
2017-Dec-09 13:27N 49°07' W 123°11'0 0.0
2017-Dec-09 13:00N 49°07' W 123°11'0 0.0
2017-Dec-09 12:30N 49°07' W 123°11'0 0.0
2017-Dec-09 11:56N 49°07' W 123°11'0 0.0
2017-Dec-09 11:30N 49°07' W 123°11'0 0.0
2017-Dec-09 10:59N 49°07' W 123°11'0 0.0
2017-Dec-09 10:30N 49°07' W 123°11'0 0.0
2017-Dec-09 10:00N 49°07' W 123°11'0 0.0
2017-Dec-09 09:30N 49°07' W 123°11'0 0.0
2017-Dec-09 09:00N 49°07' W 123°11'0 0.0
2017-Dec-09 08:30N 49°07' W 123°11'0 0.0
2017-Dec-09 08:00N 49°07' W 123°11'0 0.0
2017-Dec-09 07:31N 49°07' W 123°11'0 0.0
2017-Dec-09 07:00N 49°07' W 123°11'0 0.0
2017-Dec-09 06:30N 49°07' W 123°11'0 0.0
2017-Dec-09 06:00N 49°07' W 123°11'0 0.0
2017-Dec-09 05:30N 49°07' W 123°11'0 0.0
2017-Dec-09 05:00N 49°07' W 123°11'0 0.0
2017-Dec-09 04:30N 49°07' W 123°11'0 0.0
2017-Dec-09 03:58N 49°07' W 123°11'0 0.0
2017-Dec-09 03:30N 49°07' W 123°11'0 0.0
2017-Dec-09 03:00N 49°07' W 123°11'0 0.0
2017-Dec-09 02:30N 49°07' W 123°11'0 0.0
2017-Dec-09 02:00N 49°07' W 123°11'0 0.0
2017-Dec-09 01:30N 49°07' W 123°11'0 0.0
2017-Dec-09 01:01N 49°07' W 123°11'0 0.0
2017-Dec-09 00:30N 49°07' W 123°11'0 0.0
2017-Dec-09 00:00N 49°07' W 123°11'2 4.0
2017-Dec-08 23:30N 49°08' W 123°14'510.2
2017-Dec-08 23:00N 49°04' W 123°19'612.5
2017-Dec-08 22:30N 49°07' W 123°11'0 0.0
2017-Dec-08 21:54N 49°07' W 123°11'0 0.0
2017-Dec-08 21:30N 49°07' W 123°11'0 0.0
2017-Dec-08 21:00N 49°07' W 123°11'0 0.0
2017-Dec-08 20:30N 49°07' W 123°11'0 0.0
2017-Dec-08 20:00N 49°07' W 123°11'0 0.0
2017-Dec-08 19:31N 49°07' W 123°11'0 0.0
2017-Dec-08 19:00N 49°07' W 123°11'612.6
2017-Dec-08 18:30N 49°05' W 123°20'610.7
2017-Dec-08 17:56N 49°07' W 123°12'0 0.8
2017-Dec-08 17:28N 49°07' W 123°11'0 0.0
2017-Dec-08 17:00N 49°07' W 123°11'0 0.0
2017-Dec-08 16:29N 49°07' W 123°11'0 0.0
2017-Dec-08 16:00N 49°07' W 123°11'0 0.0
2017-Dec-08 15:30N 49°07' W 123°11'0 0.0
2017-Dec-08 15:00N 49°07' W 123°11'0 0.0
2017-Dec-08 14:30N 49°07' W 123°11'0 0.0
2017-Dec-08 13:59N 49°07' W 123°11'0 0.0
2017-Dec-08 13:30N 49°07' W 123°11'0 0.0
2017-Dec-08 12:58N 49°07' W 123°11'0 0.0
2017-Dec-08 12:30N 49°07' W 123°11'0 0.0
2017-Dec-08 12:00N 49°07' W 123°11'0 0.0
2017-Dec-08 11:30N 49°07' W 123°11'0 0.0
2017-Dec-08 11:00N 49°07' W 123°11'0 0.0
2017-Dec-08 10:30N 49°07' W 123°11'0 0.0
2017-Dec-08 10:00N 49°07' W 123°11'0 0.0
2017-Dec-08 09:30N 49°07' W 123°11'0 0.0
2017-Dec-08 09:00N 49°07' W 123°11'0 0.0
2017-Dec-08 08:30N 49°07' W 123°11'0 0.0
2017-Dec-08 07:58N 49°07' W 123°11'0 0.0
2017-Dec-08 07:30N 49°07' W 123°11'611.8
2017-Dec-08 07:01N 49°06' W 123°20'5 9.7
2017-Dec-08 06:29N 49°08' W 123°12'1 1.5
2017-Dec-08 06:00N 49°07' W 123°11'0 0.0
2017-Dec-08 05:30N 49°07' W 123°11'0 0.0
2017-Dec-08 05:00N 49°07' W 123°11'0 0.0
2017-Dec-08 04:23N 49°07' W 123°11'0 0.0
2017-Dec-08 04:00N 49°07' W 123°11'0 0.0
2017-Dec-08 03:30N 49°07' W 123°11'0 0.0
2017-Dec-08 02:53N 49°07' W 123°11'0 0.0
2017-Dec-08 02:22N 49°07' W 123°11'0 0.0
2017-Dec-08 01:58N 49°07' W 123°11'0 0.0
2017-Dec-08 01:28N 49°07' W 123°11'0 0.0
2017-Dec-08 01:00N 49°07' W 123°11'0 0.0
2017-Dec-08 00:30N 49°07' W 123°11'0 0.0
2017-Dec-08 00:00N 49°07' W 123°11'0 0.0
2017-Dec-07 23:29N 49°07' W 123°11'0 0.0
2017-Dec-07 22:51N 49°07' W 123°11'0 0.0
2017-Dec-07 22:13N 49°07' W 123°11'0 0.0
2017-Dec-07 21:49N 49°07' W 123°11'3 8.5
2017-Dec-07 21:31N 49°07' W 123°15'510.1
2017-Dec-07 21:01N 49°03' W 123°20'7 2.9
2017-Dec-07 18:40N 49°07' W 123°11'0 0.0
2017-Dec-07 18:30N 49°07' W 123°11'0 0.0
2017-Dec-07 17:59N 49°07' W 123°11'0 0.0
2017-Dec-07 17:30N 49°07' W 123°11'0 0.0
2017-Dec-07 16:57N 49°07' W 123°11'0 0.0
2017-Dec-07 16:29N 49°07' W 123°11'0 0.0
2017-Dec-07 15:45N 49°07' W 123°11'0 0.0
2017-Dec-07 15:08N 49°07' W 123°11'0 0.1
2017-Dec-07 14:51N 49°07' W 123°11'0 0.1
2017-Dec-07 14:30N 49°07' W 123°11'0 0.0
2017-Dec-07 14:00N 49°07' W 123°11'0 0.0
2017-Dec-07 13:30N 49°07' W 123°11'0 0.0
2017-Dec-07 13:00N 49°07' W 123°11'0 0.0
2017-Dec-07 12:30N 49°07' W 123°11'0 0.0
2017-Dec-07 11:57N 49°07' W 123°11'0 0.0
2017-Dec-07 11:29N 49°07' W 123°11'0 0.0
2017-Dec-07 11:00N 49°07' W 123°11'0 0.0
2017-Dec-07 10:30N 49°07' W 123°11'0 0.0
2017-Dec-07 10:00N 49°07' W 123°11'0 0.0
2017-Dec-07 09:30N 49°07' W 123°11'0 0.0
2017-Dec-07 08:59N 49°07' W 123°11'0 0.0
2017-Dec-07 08:30N 49°07' W 123°11'0 0.0
2017-Dec-07 08:00N 49°07' W 123°11'0 0.0
2017-Dec-07 07:30N 49°07' W 123°11'  
Track history (hours):
 
Tides and Currents Weather Stations Pressure Air Temp Water Temp Dewpoint Dewpoint Depression Visibility Wind Speed Wind Dir Waves Ship Positions

Pacific Navigator

Last reported at 2017-Dec-17 05:34 UTC. Time now 2017-Dec-17 06:39 UTC.
Position N 49°07' W 123°11'.

Length 35 m.

Type: Pleasure craft. MMSI: 123456788.

Date/timePositionNaut miles runAvg speedWind from/ knotsBaromVisibWave heightAir tempDewpointWater temp
2017-Dec-17 05:34N 49°07' W 123°11'0 0.0
2017-Dec-17 04:53N 49°07' W 123°11'0 0.0
2017-Dec-17 02:49N 49°07' W 123°11'516.3
2017-Dec-17 02:29N 49°06' W 123°19'5 2.0
2017-Dec-16 23:49N 49°07' W 123°11'617.8
2017-Dec-16 23:29N 49°06' W 123°20'6 0.4
2017-Dec-16 10:15N 49°07' W 123°11'418.2
2017-Dec-16 10:00N 49°06' W 123°18'2 4.7
2017-Dec-16 09:30N 49°04' W 123°18'4 7.5
2017-Dec-16 08:59N 49°07' W 123°15'1 1.8
2017-Dec-16 08:30N 49°07' W 123°17'3 2.9
2017-Dec-16 07:19N 49°07' W 123°11'617.7
2017-Dec-16 07:01N 49°06' W 123°19'6 0.5
2017-Dec-15 20:19N 49°07' W 123°11'616.7
2017-Dec-15 19:58N 49°05' W 123°19'3 5.9
2017-Dec-15 19:29N 49°07' W 123°17'3 0.7
2017-Dec-15 14:26N 49°07' W 123°11'815.9
2017-Dec-15 13:55N 49°07' W 123°24'8 4.6
2017-Dec-15 12:05N 49°07' W 123°11'112.6
2017-Dec-15 12:00N 49°08' W 123°13'5 8.8
2017-Dec-15 11:24N 49°04' W 123°18'2 5.7
2017-Dec-15 11:00N 49°06' W 123°19'5 0.6
2017-Dec-15 02:06N 49°07' W 123°11'0 0.0
2017-Dec-14 18:30N 49°07' W 123°11'0 0.0
2017-Dec-14 18:00N 49°07' W 123°11'0 0.0
2017-Dec-14 17:30N 49°07' W 123°11'0 0.3
2017-Dec-14 16:41N 49°07' W 123°11'0 1.2
2017-Dec-14 16:30N 49°07' W 123°11'0 0.0
2017-Dec-14 16:00N 49°07' W 123°11'0 0.0
2017-Dec-14 15:00N 49°07' W 123°11'0 0.0
2017-Dec-14 14:30N 49°07' W 123°11'0 0.0
2017-Dec-14 14:00N 49°07' W 123°11'0 0.0
2017-Dec-14 13:30N 49°07' W 123°11'0 0.0
2017-Dec-14 12:57N 49°07' W 123°11'0 0.0
2017-Dec-14 12:29N 49°07' W 123°11'0 0.0
2017-Dec-14 12:00N 49°07' W 123°11'0 0.0
2017-Dec-14 11:30N 49°07' W 123°11'0 0.0
2017-Dec-14 11:01N 49°07' W 123°11'0 0.0
2017-Dec-14 10:30N 49°07' W 123°11'510.9
2017-Dec-14 10:00N 49°06' W 123°19'5 9.8
2017-Dec-14 09:30N 49°08' W 123°12'1 1.4
2017-Dec-14 09:00N 49°07' W 123°11'0 0.0
2017-Dec-14 08:30N 49°07' W 123°11'0 0.0
2017-Dec-14 07:57N 49°07' W 123°11'0 0.0
2017-Dec-14 07:23N 49°07' W 123°11'0 0.0
2017-Dec-14 07:00N 49°07' W 123°11'0 0.0
2017-Dec-14 06:29N 49°07' W 123°11'0 0.0
2017-Dec-14 06:00N 49°07' W 123°11'0 0.0
2017-Dec-14 05:30N 49°07' W 123°11'0 0.0
2017-Dec-14 04:57N 49°07' W 123°11'0 0.0
2017-Dec-14 04:30N 49°07' W 123°11'0 0.0
2017-Dec-14 04:00N 49°07' W 123°11'0 0.0
2017-Dec-14 03:30N 49°07' W 123°11'0 0.0
2017-Dec-14 02:59N 49°07' W 123°11'0 0.0
2017-Dec-14 02:29N 49°07' W 123°11'0 0.0
2017-Dec-14 01:59N 49°07' W 123°11'0 0.0
2017-Dec-14 01:30N 49°07' W 123°11'0 0.0
2017-Dec-14 01:00N 49°07' W 123°11'0 0.0
2017-Dec-14 00:30N 49°07' W 123°11'0 0.0
2017-Dec-14 00:00N 49°07' W 123°11'611.0
2017-Dec-13 23:28N 49°06' W 123°20'3 5.9
2017-Dec-13 23:00N 49°07' W 123°16'3 6.4
2017-Dec-13 22:30N 49°07' W 123°11'4 7.7
2017-Dec-13 22:00N 49°07' W 123°17'0 0.2
2017-Dec-13 21:30N 49°07' W 123°17'4 7.9
2017-Dec-13 21:00N 49°07' W 123°11'0 0.0
2017-Dec-13 20:30N 49°07' W 123°11'0 0.0
2017-Dec-13 19:58N 49°07' W 123°11'0 0.0
2017-Dec-13 19:30N 49°07' W 123°11'0 0.0
2017-Dec-13 19:00N 49°07' W 123°11'0 0.0
2017-Dec-13 18:30N 49°07' W 123°11'0 0.0
2017-Dec-13 18:00N 49°07' W 123°11'0 0.0
2017-Dec-13 17:30N 49°07' W 123°11'0 0.0
2017-Dec-13 17:00N 49°07' W 123°11'0 0.0
2017-Dec-13 16:30N 49°07' W 123°11'0 0.0
2017-Dec-13 16:00N 49°07' W 123°11'0 0.0
2017-Dec-13 15:30N 49°07' W 123°11'0 0.0
2017-Dec-13 15:00N 49°07' W 123°11'0 0.0
2017-Dec-13 14:30N 49°07' W 123°11'0 0.0
2017-Dec-13 14:00N 49°07' W 123°11'0 0.0
2017-Dec-13 13:30N 49°07' W 123°11'0 0.0
2017-Dec-13 13:00N 49°07' W 123°11'0 0.0
2017-Dec-13 12:30N 49°07' W 123°11'0 0.0
2017-Dec-13 12:00N 49°07' W 123°11'713.4
2017-Dec-13 11:31N 49°04' W 123°20'5 9.1
2017-Dec-13 11:00N 49°07' W 123°15'3 5.0
2017-Dec-13 10:30N 49°07' W 123°11'2 3.2
2017-Dec-13 10:00N 49°08' W 123°14'611.2
2017-Dec-13 09:30N 49°04' W 123°20'713.0
2017-Dec-13 09:00N 49°07' W 123°11'0 0.0
2017-Dec-13 08:19N 49°07' W 123°11'2 7.0
2017-Dec-13 08:00N 49°08' W 123°14'0 0.3
2017-Dec-13 07:30N 49°08' W 123°14'2 4.1
2017-Dec-13 06:58N 49°07' W 123°11'0 0.0
2017-Dec-13 06:26N 49°07' W 123°11'0 0.0
2017-Dec-13 05:57N 49°07' W 123°11'0 0.0
2017-Dec-13 05:28N 49°07' W 123°11'0 0.0
2017-Dec-13 04:58N 49°07' W 123°11'0 0.0
2017-Dec-13 04:28N 49°07' W 123°11'0 0.0
2017-Dec-13 04:00N 49°07' W 123°11'0 0.0
2017-Dec-13 03:30N 49°07' W 123°11'0 0.0
2017-Dec-13 03:00N 49°07' W 123°11'0 0.0
2017-Dec-13 02:30N 49°07' W 123°11'0 0.1
2017-Dec-13 02:00N 49°07' W 123°11'0 0.1
2017-Dec-13 01:30N 49°07' W 123°11'5 8.9
2017-Dec-13 00:59N 49°06' W 123°18'5 9.6
2017-Dec-13 00:30N 49°07' W 123°11'0 0.0
2017-Dec-13 00:00N 49°07' W 123°11'4 8.0
2017-Dec-12 23:30N 49°06' W 123°17'4 7.9
2017-Dec-12 22:59N 49°07' W 123°11'0 0.0
2017-Dec-12 22:30N 49°07' W 123°11'0 0.0
2017-Dec-12 22:00N 49°07' W 123°11'0 0.0
2017-Dec-12 21:29N 49°07' W 123°11'0 0.0
2017-Dec-12 20:59N 49°07' W 123°11'613.5
2017-Dec-12 20:30N 49°05' W 123°20'4 7.6
2017-Dec-12 20:00N 49°07' W 123°16'3 5.9
2017-Dec-12 19:29N 49°07' W 123°11'0 0.0
2017-Dec-12 18:57N 49°07' W 123°11'0 0.0
2017-Dec-12 18:30N 49°07' W 123°11'0 0.0
2017-Dec-12 18:00N 49°07' W 123°11'0 0.0
2017-Dec-12 17:30N 49°07' W 123°11'0 0.0
2017-Dec-12 17:00N 49°07' W 123°11'0 0.0
2017-Dec-12 16:30N 49°07' W 123°11'0 0.0
2017-Dec-12 16:00N 49°07' W 123°11'0 0.0
2017-Dec-12 15:30N 49°07' W 123°11'0 0.0
2017-Dec-12 15:00N 49°07' W 123°11'0 0.0
2017-Dec-12 14:30N 49°07' W 123°11'0 0.0
2017-Dec-12 14:00N 49°07' W 123°11'0 0.0
2017-Dec-12 13:29N 49°07' W 123°11'0 0.0
2017-Dec-12 13:00N 49°07' W 123°11'0 0.0
2017-Dec-12 12:29N 49°07' W 123°11'0 0.0
2017-Dec-12 12:00N 49°07' W 123°11'0 0.0
2017-Dec-12 11:30N 49°07' W 123°11'0 0.0
2017-Dec-12 11:00N 49°07' W 123°11'1 2.7
2017-Dec-12 10:31N 49°08' W 123°13'611.4
2017-Dec-12 10:00N 49°03' W 123°19'612.1
2017-Dec-12 09:28N 49°07' W 123°11'0 0.0
2017-Dec-12 09:00N 49°07' W 123°11'0 0.0
2017-Dec-12 08:30N 49°07' W 123°11'0 0.0
2017-Dec-12 08:00N 49°07' W 123°11'0 0.0
2017-Dec-12 07:30N 49°07' W 123°11'0 0.0
2017-Dec-12 06:52N 49°07' W 123°11'0 0.0
2017-Dec-12 06:29N 49°07' W 123°11'0 0.0
2017-Dec-12 05:59N 49°07' W 123°11'0 0.0
2017-Dec-12 05:30N 49°07' W 123°11'0 0.0
2017-Dec-12 05:00N 49°07' W 123°11'0 0.0
2017-Dec-12 04:30N 49°07' W 123°11'0 0.0
2017-Dec-12 04:00N 49°07' W 123°11'0 0.0
2017-Dec-12 03:29N 49°07' W 123°11'0 0.0
2017-Dec-12 03:00N 49°07' W 123°11'0 0.0
2017-Dec-12 02:30N 49°07' W 123°11'0 0.0
2017-Dec-12 02:00N 49°07' W 123°11'0 0.0
2017-Dec-12 01:29N 49°07' W 123°11'2 4.5
2017-Dec-12 01:00N 49°08' W 123°14'3 5.0
2017-Dec-12 00:29N 49°06' W 123°18'4 9.2
2017-Dec-12 00:00N 49°07' W 123°11'0 0.0
2017-Dec-11 23:30N 49°07' W 123°11'0 0.1
2017-Dec-11 23:00N 49°07' W 123°11'0 0.1
2017-Dec-11 22:27N 49°07' W 123°11'0 0.0
2017-Dec-11 22:00N 49°07' W 123°11'0 0.0
2017-Dec-11 21:30N 49°07' W 123°11'0 0.0
2017-Dec-11 21:00N 49°07' W 123°11'0 0.0
2017-Dec-11 20:30N 49°07' W 123°11'0 0.6
2017-Dec-11 20:00N 49°07' W 123°12'713.0
2017-Dec-11 19:30N 49°03' W 123°19'713.3
2017-Dec-11 19:00N 49°07' W 123°11'0 0.1
2017-Dec-11 18:30N 49°07' W 123°11'0 0.0
2017-Dec-11 18:00N 49°07' W 123°11'0 0.0
2017-Dec-11 17:30N 49°07' W 123°11'0 0.0
2017-Dec-11 16:59N 49°07' W 123°11'0 0.0
2017-Dec-11 16:30N 49°07' W 123°11'0 0.0
2017-Dec-11 15:59N 49°07' W 123°11'0 0.0
2017-Dec-11 15:30N 49°07' W 123°11'0 0.0
2017-Dec-11 15:00N 49°07' W 123°11'0 0.0
2017-Dec-11 14:30N 49°07' W 123°11'0 0.0
2017-Dec-11 14:00N 49°07' W 123°11'0 0.0
2017-Dec-11 13:30N 49°07' W 123°11'0 0.0
2017-Dec-11 13:00N 49°07' W 123°11'0 0.0
2017-Dec-11 12:30N 49°07' W 123°11'612.6
2017-Dec-11 12:00N 49°04' W 123°20'2 5.0
2017-Dec-11 11:30N 49°06' W 123°18'4 8.8
2017-Dec-11 11:00N 49°07' W 123°11'0 0.0
2017-Dec-11 10:30N 49°07' W 123°11'0 0.0
2017-Dec-11 10:00N 49°07' W 123°11'0 0.0
2017-Dec-11 09:30N 49°07' W 123°11'0 0.0
2017-Dec-11 09:00N 49°07' W 123°11'0 0.0
2017-Dec-11 08:29N 49°07' W 123°11'0 0.0
2017-Dec-11 08:00N 49°07' W 123°11'0 0.0
2017-Dec-11 07:30N 49°07' W 123°11'0 0.0
2017-Dec-11 06:59N 49°07' W 123°11'0 0.1
2017-Dec-11 06:30N 49°07' W 123°11'0 0.1
2017-Dec-11 06:00N 49°07' W 123°11'0 0.0
2017-Dec-11 05:30N 49°07' W 123°11'0 0.0
2017-Dec-11 05:00N 49°07' W 123°11'0 0.0
2017-Dec-11 04:30N 49°07' W 123°11'0 0.0
2017-Dec-11 04:00N 49°07' W 123°11'0 0.0
2017-Dec-11 03:30N 49°07' W 123°11'0 0.0
2017-Dec-11 03:00N 49°07' W 123°11'0 0.0
2017-Dec-11 02:26N 49°07' W 123°11'1 3.0
2017-Dec-11 02:00N 49°08' W 123°13'612.7
2017-Dec-11 01:30N 49°02' W 123°18'2 4.1
2017-Dec-11 01:00N 49°04' W 123°20'1 2.4
2017-Dec-11 00:30N 49°06' W 123°19'610.9
2017-Dec-11 00:00N 49°07' W 123°11'0 0.1
2017-Dec-10 23:30N 49°07' W 123°11'0 0.0
2017-Dec-10 23:00N 49°07' W 123°11'0 0.0
2017-Dec-10 22:30N 49°07' W 123°11'713.7
2017-Dec-10 22:00N 49°05' W 123°21'4 8.0
2017-Dec-10 21:30N 49°07' W 123°16'3 5.8
2017-Dec-10 21:00N 49°07' W 123°11'0 0.0
2017-Dec-10 20:30N 49°07' W 123°11'0 0.0
2017-Dec-10 20:00N 49°07' W 123°11'0 0.0
2017-Dec-10 19:30N 49°07' W 123°11'0 0.0
2017-Dec-10 19:00N 49°07' W 123°11'0 0.0
2017-Dec-10 18:28N 49°07' W 123°11'0 0.0
2017-Dec-10 18:00N 49°07' W 123°11'0 0.0
2017-Dec-10 17:30N 49°07' W 123°11'0 0.0
2017-Dec-10 16:59N 49°07' W 123°11'0 0.0
2017-Dec-10 16:30N 49°07' W 123°11'0 0.0
2017-Dec-10 16:00N 49°07' W 123°11'0 0.0
2017-Dec-10 15:27N 49°07' W 123°11'0 0.0
2017-Dec-10 14:59N 49°07' W 123°11'0 0.0
2017-Dec-10 14:30N 49°07' W 123°11'0 0.0
2017-Dec-10 14:00N 49°07' W 123°11'0 0.0
2017-Dec-10 13:30N 49°07' W 123°11'0 0.0
2017-Dec-10 13:00N 49°07' W 123°11'0 0.0
2017-Dec-10 12:30N 49°07' W 123°11'0 0.0
2017-Dec-10 12:00N 49°07' W 123°11'0 0.0
2017-Dec-10 11:30N 49°07' W 123°11'0 0.0
2017-Dec-10 11:00N 49°07' W 123°11'0 0.0
2017-Dec-10 10:30N 49°07' W 123°11'0 0.0
2017-Dec-10 10:00N 49°07' W 123°11'0 0.0
2017-Dec-10 09:30N 49°07' W 123°11'0 0.0
2017-Dec-10 09:00N 49°07' W 123°11'0 0.0
2017-Dec-10 08:30N 49°07' W 123°11'0 0.0
2017-Dec-10 08:00N 49°07' W 123°11'0 0.0
2017-Dec-10 07:30N 49°07' W 123°11'0 0.0
2017-Dec-10 07:00N 49°07' W 123°11'0 0.0
2017-Dec-10 06:30N 49°07' W 123°11'0 0.0
2017-Dec-10 06:00N 49°07' W 123°11'0 0.0
2017-Dec-10 05:30N 49°07' W 123°11'0 0.0
2017-Dec-10 04:59N 49°07' W 123°11'0 0.0
2017-Dec-10 04:28N 49°07' W 123°11'0 0.0
2017-Dec-10 04:00N 49°07' W 123°11'0 0.0
2017-Dec-10 03:30N 49°07' W 123°11'0 0.0
2017-Dec-10 03:00N 49°07' W 123°11'0 0.0
2017-Dec-10 02:30N 49°07' W 123°11'611.2
2017-Dec-10 02:01N 49°06' W 123°19'610.3
2017-Dec-10 01:28N 49°07' W 123°11'0 0.1
2017-Dec-10 01:00N 49°07' W 123°11'0 0.0
2017-Dec-10 00:30N 49°07' W 123°11'0 0.0
2017-Dec-10 00:00N 49°07' W 123°11'0 0.0
2017-Dec-09 23:30N 49°07' W 123°11'0 0.0
2017-Dec-09 23:00N 49°07' W 123°11'0 0.0
2017-Dec-09 22:28N 49°07' W 123°11'0 0.0
2017-Dec-09 21:55N 49°07' W 123°11'0 0.0
2017-Dec-09 21:30N 49°07' W 123°11'0 0.0
2017-Dec-09 21:00N 49°07' W 123°11'0 0.0
2017-Dec-09 20:29N 49°07' W 123°11'0 0.0
2017-Dec-09 19:58N 49°07' W 123°11'0 0.0
2017-Dec-09 19:30N 49°07' W 123°11'0 0.0
2017-Dec-09 18:58N 49°07' W 123°11'0 0.0
2017-Dec-09 18:31N 49°07' W 123°11'0 0.0
2017-Dec-09 18:00N 49°07' W 123°11'0 0.0
2017-Dec-09 17:30N 49°07' W 123°11'0 0.0
2017-Dec-09 17:00N 49°07' W 123°11'0 0.0
2017-Dec-09 16:29N 49°07' W 123°11'0 0.0
2017-Dec-09 15:58N 49°07' W 123°11'0 0.0
2017-Dec-09 15:30N 49°07' W 123°11'0 0.0
2017-Dec-09 15:00N 49°07' W 123°11'0 0.0
2017-Dec-09 14:30N 49°07' W 123°11'0 0.0
2017-Dec-09 14:00N 49°07' W 123°11'0 0.0
2017-Dec-09 13:27N 49°07' W 123°11'0 0.0
2017-Dec-09 13:00N 49°07' W 123°11'0 0.0
2017-Dec-09 12:30N 49°07' W 123°11'0 0.0
2017-Dec-09 11:56N 49°07' W 123°11'0 0.0
2017-Dec-09 11:30N 49°07' W 123°11'0 0.0
2017-Dec-09 10:59N 49°07' W 123°11'0 0.0
2017-Dec-09 10:30N 49°07' W 123°11'0 0.0
2017-Dec-09 10:00N 49°07' W 123°11'0 0.0
2017-Dec-09 09:30N 49°07' W 123°11'0 0.0
2017-Dec-09 09:00N 49°07' W 123°11'0 0.0
2017-Dec-09 08:30N 49°07' W 123°11'0 0.0
2017-Dec-09 08:00N 49°07' W 123°11'0 0.0
2017-Dec-09 07:31N 49°07' W 123°11'0 0.0
2017-Dec-09 07:00N 49°07' W 123°11'0 0.0
2017-Dec-09 06:30N 49°07' W 123°11'0 0.0
2017-Dec-09 06:00N 49°07' W 123°11'0 0.0
2017-Dec-09 05:30N 49°07' W 123°11'0 0.0
2017-Dec-09 05:00N 49°07' W 123°11'0 0.0
2017-Dec-09 04:30N 49°07' W 123°11'0 0.0
2017-Dec-09 03:58N 49°07' W 123°11'0 0.0
2017-Dec-09 03:30N 49°07' W 123°11'0 0.0
2017-Dec-09 03:00N 49°07' W 123°11'0 0.0
2017-Dec-09 02:30N 49°07' W 123°11'0 0.0
2017-Dec-09 02:00N 49°07' W 123°11'0 0.0
2017-Dec-09 01:30N 49°07' W 123°11'0 0.0
2017-Dec-09 01:01N 49°07' W 123°11'0 0.0
2017-Dec-09 00:30N 49°07' W 123°11'0 0.0
2017-Dec-09 00:00N 49°07' W 123°11'2 4.0
2017-Dec-08 23:30N 49°08' W 123°14'510.2
2017-Dec-08 23:00N 49°04' W 123°19'612.5
2017-Dec-08 22:30N 49°07' W 123°11'0 0.0
2017-Dec-08 21:54N 49°07' W 123°11'0 0.0
2017-Dec-08 21:30N 49°07' W 123°11'0 0.0
2017-Dec-08 21:00N 49°07' W 123°11'0 0.0
2017-Dec-08 20:30N 49°07' W 123°11'0 0.0
2017-Dec-08 20:00N 49°07' W 123°11'0 0.0
2017-Dec-08 19:31N 49°07' W 123°11'0 0.0
2017-Dec-08 19:00N 49°07' W 123°11'612.6
2017-Dec-08 18:30N 49°05' W 123°20'610.7
2017-Dec-08 17:56N 49°07' W 123°12'0 0.8
2017-Dec-08 17:28N 49°07' W 123°11'0 0.0
2017-Dec-08 17:00N 49°07' W 123°11'0 0.0
2017-Dec-08 16:29N 49°07' W 123°11'0 0.0
2017-Dec-08 16:00N 49°07' W 123°11'0 0.0
2017-Dec-08 15:30N 49°07' W 123°11'0 0.0
2017-Dec-08 15:00N 49°07' W 123°11'0 0.0
2017-Dec-08 14:30N 49°07' W 123°11'0 0.0
2017-Dec-08 13:59N 49°07' W 123°11'0 0.0
2017-Dec-08 13:30N 49°07' W 123°11'0 0.0
2017-Dec-08 12:58N 49°07' W 123°11'0 0.0
2017-Dec-08 12:30N 49°07' W 123°11'0 0.0
2017-Dec-08 12:00N 49°07' W 123°11'0 0.0
2017-Dec-08 11:30N 49°07' W 123°11'0 0.0
2017-Dec-08 11:00N 49°07' W 123°11'0 0.0
2017-Dec-08 10:30N 49°07' W 123°11'0 0.0
2017-Dec-08 10:00N 49°07' W 123°11'0 0.0
2017-Dec-08 09:30N 49°07' W 123°11'0 0.0
2017-Dec-08 09:00N 49°07' W 123°11'0 0.0
2017-Dec-08 08:30N 49°07' W 123°11'0 0.0
2017-Dec-08 07:58N 49°07' W 123°11'0 0.0
2017-Dec-08 07:30N 49°07' W 123°11'611.8
2017-Dec-08 07:01N 49°06' W 123°20'5 9.7
2017-Dec-08 06:29N 49°08' W 123°12'1 1.5
2017-Dec-08 06:00N 49°07' W 123°11'0 0.0
2017-Dec-08 05:30N 49°07' W 123°11'0 0.0
2017-Dec-08 05:00N 49°07' W 123°11'0 0.0
2017-Dec-08 04:23N 49°07' W 123°11'0 0.0
2017-Dec-08 04:00N 49°07' W 123°11'0 0.0
2017-Dec-08 03:30N 49°07' W 123°11'0 0.0
2017-Dec-08 02:53N 49°07' W 123°11'0 0.0
2017-Dec-08 02:22N 49°07' W 123°11'0 0.0
2017-Dec-08 01:58N 49°07' W 123°11'0 0.0
2017-Dec-08 01:28N 49°07' W 123°11'0 0.0
2017-Dec-08 01:00N 49°07' W 123°11'0 0.0
2017-Dec-08 00:30N 49°07' W 123°11'0 0.0
2017-Dec-08 00:00N 49°07' W 123°11'0 0.0
2017-Dec-07 23:29N 49°07' W 123°11'0 0.0
2017-Dec-07 22:51N 49°07' W 123°11'0 0.0
2017-Dec-07 22:13N 49°07' W 123°11'0 0.0
2017-Dec-07 21:49N 49°07' W 123°11'3 8.5
2017-Dec-07 21:31N 49°07' W 123°15'510.1
2017-Dec-07 21:01N 49°03' W 123°20'7 2.9
2017-Dec-07 18:40N 49°07' W 123°11'0 0.0
2017-Dec-07 18:30N 49°07' W 123°11'0 0.0
2017-Dec-07 17:59N 49°07' W 123°11'0 0.0
2017-Dec-07 17:30N 49°07' W 123°11'0 0.0
2017-Dec-07 16:57N 49°07' W 123°11'0 0.0
2017-Dec-07 16:29N 49°07' W 123°11'0 0.0
2017-Dec-07 15:45N 49°07' W 123°11'0 0.0
2017-Dec-07 15:08N 49°07' W 123°11'0 0.1
2017-Dec-07 14:51N 49°07' W 123°11'0 0.1
2017-Dec-07 14:30N 49°07' W 123°11'0 0.0
2017-Dec-07 14:00N 49°07' W 123°11'0 0.0
2017-Dec-07 13:30N 49°07' W 123°11'0 0.0
2017-Dec-07 13:00N 49°07' W 123°11'0 0.0
2017-Dec-07 12:30N 49°07' W 123°11'0 0.0
2017-Dec-07 11:57N 49°07' W 123°11'0 0.0
2017-Dec-07 11:29N 49°07' W 123°11'0 0.0
2017-Dec-07 11:00N 49°07' W 123°11'0 0.0
2017-Dec-07 10:30N 49°07' W 123°11'0 0.0
2017-Dec-07 10:00N 49°07' W 123°11'0 0.0
2017-Dec-07 09:30N 49°07' W 123°11'0 0.0
2017-Dec-07 08:59N 49°07' W 123°11'0 0.0
2017-Dec-07 08:30N 49°07' W 123°11'0 0.0
2017-Dec-07 08:00N 49°07' W 123°11'0 0.0
2017-Dec-07 07:30N 49°07' W 123°11'  

Dump ship's entire track history